sensor_id;sensor_type;location;lat;lon;timestamp;P1;durP1;ratioP1;P2;durP2;ratioP2
43664;SDS011;29263;48.172;11.484;2023-08-01T00:01:56;2.67;;;2.00;;
43664;SDS011;29263;48.172;11.484;2023-08-01T00:04:21;2.53;;;1.65;;
43664;SDS011;29263;48.172;11.484;2023-08-01T00:06:47;2.30;;;1.70;;
43664;SDS011;29263;48.172;11.484;2023-08-01T00:09:13;2.80;;;1.77;;
43664;SDS011;29263;48.172;11.484;2023-08-01T00:11:38;3.33;;;1.90;;
43664;SDS011;29263;48.172;11.484;2023-08-01T00:14:04;2.72;;;2.03;;
43664;SDS011;29263;48.172;11.484;2023-08-01T00:16:29;4.55;;;1.50;;
43664;SDS011;29263;48.172;11.484;2023-08-01T00:18:57;3.42;;;1.75;;
43664;SDS011;29263;48.172;11.484;2023-08-01T00:21:22;2.80;;;1.88;;
43664;SDS011;29263;48.172;11.484;2023-08-01T00:23:48;3.38;;;1.85;;
43664;SDS011;29263;48.172;11.484;2023-08-01T00:26:14;3.17;;;1.95;;
43664;SDS011;29263;48.172;11.484;2023-08-01T00:28:39;5.75;;;2.05;;
43664;SDS011;29263;48.172;11.484;2023-08-01T00:31:08;4.28;;;1.85;;
43664;SDS011;29263;48.172;11.484;2023-08-01T00:33:34;4.25;;;1.67;;
43664;SDS011;29263;48.172;11.484;2023-08-01T00:36:00;2.60;;;1.52;;
43664;SDS011;29263;48.172;11.484;2023-08-01T00:38:26;2.33;;;1.65;;
43664;SDS011;29263;48.172;11.484;2023-08-01T00:40:52;2.38;;;1.65;;
43664;SDS011;29263;48.172;11.484;2023-08-01T00:43:17;2.28;;;1.52;;
43664;SDS011;29263;48.172;11.484;2023-08-01T00:45:44;3.05;;;1.50;;
43664;SDS011;29263;48.172;11.484;2023-08-01T00:48:11;2.33;;;1.45;;
43664;SDS011;29263;48.172;11.484;2023-08-01T00:50:37;4.57;;;1.67;;
43664;SDS011;29263;48.172;11.484;2023-08-01T00:53:04;4.60;;;1.98;;
43664;SDS011;29263;48.172;11.484;2023-08-01T00:55:30;2.88;;;1.75;;
43664;SDS011;29263;48.172;11.484;2023-08-01T00:57:57;2.75;;;1.75;;
43664;SDS011;29263;48.172;11.484;2023-08-01T01:00:23;4.55;;;1.77;;
43664;SDS011;29263;48.172;11.484;2023-08-01T01:02:48;2.42;;;1.60;;
43664;SDS011;29263;48.172;11.484;2023-08-01T01:05:14;2.67;;;1.80;;
43664;SDS011;29263;48.172;11.484;2023-08-01T01:07:40;1.85;;;1.52;;
43664;SDS011;29263;48.172;11.484;2023-08-01T01:10:06;2.35;;;1.70;;
43664;SDS011;29263;48.172;11.484;2023-08-01T01:12:32;3.42;;;2.28;;
43664;SDS011;29263;48.172;11.484;2023-08-01T01:14:58;4.15;;;1.60;;
43664;SDS011;29263;48.172;11.484;2023-08-01T01:17:23;2.55;;;1.83;;
43664;SDS011;29263;48.172;11.484;2023-08-01T01:19:49;4.07;;;1.70;;
43664;SDS011;29263;48.172;11.484;2023-08-01T01:22:14;3.10;;;1.55;;
43664;SDS011;29263;48.172;11.484;2023-08-01T01:24:41;3.25;;;1.50;;
43664;SDS011;29263;48.172;11.484;2023-08-01T01:27:07;3.40;;;1.50;;
43664;SDS011;29263;48.172;11.484;2023-08-01T01:29:34;3.17;;;1.63;;
43664;SDS011;29263;48.172;11.484;2023-08-01T01:32:02;2.88;;;1.50;;
43664;SDS011;29263;48.172;11.484;2023-08-01T01:34:29;4.38;;;2.03;;
43664;SDS011;29263;48.172;11.484;2023-08-01T01:36:55;2.53;;;1.52;;
43664;SDS011;29263;48.172;11.484;2023-08-01T01:39:20;5.00;;;1.80;;
43664;SDS011;29263;48.172;11.484;2023-08-01T01:41:46;1.80;;;1.50;;
43664;SDS011;29263;48.172;11.484;2023-08-01T01:44:12;2.40;;;1.50;;
43664;SDS011;29263;48.172;11.484;2023-08-01T01:46:37;2.63;;;1.60;;
43664;SDS011;29263;48.172;11.484;2023-08-01T01:49:03;2.72;;;1.42;;
43664;SDS011;29263;48.172;11.484;2023-08-01T01:51:30;2.85;;;1.80;;
43664;SDS011;29263;48.172;11.484;2023-08-01T01:53:55;3.60;;;1.58;;
43664;SDS011;29263;48.172;11.484;2023-08-01T01:56:21;2.65;;;1.90;;
43664;SDS011;29263;48.172;11.484;2023-08-01T01:58:46;4.35;;;2.00;;
43664;SDS011;29263;48.172;11.484;2023-08-01T02:01:12;3.30;;;1.98;;
43664;SDS011;29263;48.172;11.484;2023-08-01T02:03:38;2.25;;;1.70;;
43664;SDS011;29263;48.172;11.484;2023-08-01T02:06:03;4.13;;;2.20;;
43664;SDS011;29263;48.172;11.484;2023-08-01T02:08:29;4.70;;;1.90;;
43664;SDS011;29263;48.172;11.484;2023-08-01T02:10:55;2.00;;;1.60;;
43664;SDS011;29263;48.172;11.484;2023-08-01T02:13:23;4.13;;;2.40;;
43664;SDS011;29263;48.172;11.484;2023-08-01T02:15:49;4.47;;;1.77;;
43664;SDS011;29263;48.172;11.484;2023-08-01T02:18:15;2.58;;;1.73;;
43664;SDS011;29263;48.172;11.484;2023-08-01T02:20:40;3.47;;;2.17;;
43664;SDS011;29263;48.172;11.484;2023-08-01T02:23:06;4.22;;;2.15;;
43664;SDS011;29263;48.172;11.484;2023-08-01T02:25:31;2.38;;;1.60;;
43664;SDS011;29263;48.172;11.484;2023-08-01T02:27:57;2.40;;;1.75;;
43664;SDS011;29263;48.172;11.484;2023-08-01T02:30:23;3.15;;;1.90;;
43664;SDS011;29263;48.172;11.484;2023-08-01T02:32:48;4.05;;;2.15;;
43664;SDS011;29263;48.172;11.484;2023-08-01T02:35:14;3.88;;;2.22;;
43664;SDS011;29263;48.172;11.484;2023-08-01T02:37:40;3.40;;;1.63;;
43664;SDS011;29263;48.172;11.484;2023-08-01T02:40:07;3.28;;;2.00;;
43664;SDS011;29263;48.172;11.484;2023-08-01T02:42:33;2.10;;;1.80;;
43664;SDS011;29263;48.172;11.484;2023-08-01T02:44:59;2.00;;;1.70;;
43664;SDS011;29263;48.172;11.484;2023-08-01T02:47:25;2.60;;;1.92;;
43664;SDS011;29263;48.172;11.484;2023-08-01T02:49:50;2.95;;;1.83;;
43664;SDS011;29263;48.172;11.484;2023-08-01T02:52:16;4.35;;;1.98;;
43664;SDS011;29263;48.172;11.484;2023-08-01T02:54:42;2.38;;;1.88;;
43664;SDS011;29263;48.172;11.484;2023-08-01T02:57:07;1.92;;;1.33;;
43664;SDS011;29263;48.172;11.484;2023-08-01T02:59:33;4.63;;;1.67;;
43664;SDS011;29263;48.172;11.484;2023-08-01T03:01:59;3.22;;;2.03;;
43664;SDS011;29263;48.172;11.484;2023-08-01T03:04:24;2.85;;;2.00;;
43664;SDS011;29263;48.172;11.484;2023-08-01T03:06:50;3.97;;;2.40;;
43664;SDS011;29263;48.172;11.484;2023-08-01T03:09:16;5.22;;;1.88;;
43664;SDS011;29263;48.172;11.484;2023-08-01T03:11:41;2.85;;;1.70;;
43664;SDS011;29263;48.172;11.484;2023-08-01T03:14:07;4.13;;;1.80;;
43664;SDS011;29263;48.172;11.484;2023-08-01T03:16:32;4.75;;;1.63;;
43664;SDS011;29263;48.172;11.484;2023-08-01T03:18:58;4.05;;;1.83;;
43664;SDS011;29263;48.172;11.484;2023-08-01T03:21:29;3.28;;;2.08;;
43664;SDS011;29263;48.172;11.484;2023-08-01T03:23:56;4.40;;;2.03;;
43664;SDS011;29263;48.172;11.484;2023-08-01T03:26:22;4.03;;;2.00;;
43664;SDS011;29263;48.172;11.484;2023-08-01T03:28:48;3.35;;;2.20;;
43664;SDS011;29263;48.172;11.484;2023-08-01T03:31:13;4.85;;;2.15;;
43664;SDS011;29263;48.172;11.484;2023-08-01T03:33:40;6.45;;;2.78;;
43664;SDS011;29263;48.172;11.484;2023-08-01T03:36:06;3.20;;;2.15;;
43664;SDS011;29263;48.172;11.484;2023-08-01T03:38:31;3.72;;;2.13;;
43664;SDS011;29263;48.172;11.484;2023-08-01T03:40:57;3.53;;;2.53;;
43664;SDS011;29263;48.172;11.484;2023-08-01T03:43:23;2.78;;;1.70;;
43664;SDS011;29263;48.172;11.484;2023-08-01T03:45:49;3.05;;;2.10;;
43664;SDS011;29263;48.172;11.484;2023-08-01T03:48:15;3.20;;;2.25;;
43664;SDS011;29263;48.172;11.484;2023-08-01T03:50:40;4.60;;;2.05;;
43664;SDS011;29263;48.172;11.484;2023-08-01T03:53:06;5.20;;;2.10;;
43664;SDS011;29263;48.172;11.484;2023-08-01T03:55:32;3.80;;;2.05;;
43664;SDS011;29263;48.172;11.484;2023-08-01T03:57:58;5.55;;;1.80;;
43664;SDS011;29263;48.172;11.484;2023-08-01T04:00:24;4.78;;;1.92;;
43664;SDS011;29263;48.172;11.484;2023-08-01T04:02:49;3.35;;;2.15;;
43664;SDS011;29263;48.172;11.484;2023-08-01T04:05:15;4.60;;;2.10;;
43664;SDS011;29263;48.172;11.484;2023-08-01T04:07:41;3.97;;;2.30;;
43664;SDS011;29263;48.172;11.484;2023-08-01T04:10:07;3.65;;;2.50;;
43664;SDS011;29263;48.172;11.484;2023-08-01T04:12:33;3.55;;;2.35;;
43664;SDS011;29263;48.172;11.484;2023-08-01T04:14:59;5.10;;;2.95;;
43664;SDS011;29263;48.172;11.484;2023-08-01T04:17:25;5.72;;;2.50;;
43664;SDS011;29263;48.172;11.484;2023-08-01T04:19:51;3.20;;;2.20;;
43664;SDS011;29263;48.172;11.484;2023-08-01T04:22:16;4.25;;;2.58;;
43664;SDS011;29263;48.172;11.484;2023-08-01T04:24:42;5.25;;;2.40;;
43664;SDS011;29263;48.172;11.484;2023-08-01T04:27:08;4.75;;;2.60;;
43664;SDS011;29263;48.172;11.484;2023-08-01T04:29:34;3.58;;;2.40;;
43664;SDS011;29263;48.172;11.484;2023-08-01T04:31:59;3.65;;;2.53;;
43664;SDS011;29263;48.172;11.484;2023-08-01T04:34:25;5.45;;;2.80;;
43664;SDS011;29263;48.172;11.484;2023-08-01T04:36:51;5.43;;;2.60;;
43664;SDS011;29263;48.172;11.484;2023-08-01T04:39:16;6.22;;;2.22;;
43664;SDS011;29263;48.172;11.484;2023-08-01T04:41:42;4.65;;;2.80;;
43664;SDS011;29263;48.172;11.484;2023-08-01T04:44:08;5.35;;;2.60;;
43664;SDS011;29263;48.172;11.484;2023-08-01T04:46:33;3.88;;;2.42;;
43664;SDS011;29263;48.172;11.484;2023-08-01T04:48:59;4.43;;;2.67;;
43664;SDS011;29263;48.172;11.484;2023-08-01T04:51:25;5.38;;;3.08;;
43664;SDS011;29263;48.172;11.484;2023-08-01T04:53:50;4.32;;;2.60;;
43664;SDS011;29263;48.172;11.484;2023-08-01T04:56:16;4.28;;;2.70;;
43664;SDS011;29263;48.172;11.484;2023-08-01T04:58:42;4.80;;;2.83;;
43664;SDS011;29263;48.172;11.484;2023-08-01T05:01:07;4.97;;;2.80;;
43664;SDS011;29263;48.172;11.484;2023-08-01T05:03:33;5.32;;;3.15;;
43664;SDS011;29263;48.172;11.484;2023-08-01T05:05:58;5.68;;;3.08;;
43664;SDS011;29263;48.172;11.484;2023-08-01T05:08:24;3.97;;;3.03;;
43664;SDS011;29263;48.172;11.484;2023-08-01T05:10:50;5.03;;;3.20;;
43664;SDS011;29263;48.172;11.484;2023-08-01T05:13:16;7.22;;;3.10;;
43664;SDS011;29263;48.172;11.484;2023-08-01T05:15:44;4.55;;;3.05;;
43664;SDS011;29263;48.172;11.484;2023-08-01T05:18:12;4.57;;;3.03;;
43664;SDS011;29263;48.172;11.484;2023-08-01T05:20:41;4.07;;;3.00;;
43664;SDS011;29263;48.172;11.484;2023-08-01T05:23:06;4.97;;;3.10;;
43664;SDS011;29263;48.172;11.484;2023-08-01T05:25:32;5.75;;;3.47;;
43664;SDS011;29263;48.172;11.484;2023-08-01T05:27:58;8.15;;;2.90;;
43664;SDS011;29263;48.172;11.484;2023-08-01T05:30:24;7.65;;;3.25;;
43664;SDS011;29263;48.172;11.484;2023-08-01T05:32:49;5.18;;;3.20;;
43664;SDS011;29263;48.172;11.484;2023-08-01T05:35:15;4.38;;;3.08;;
43664;SDS011;29263;48.172;11.484;2023-08-01T05:37:42;7.20;;;3.35;;
43664;SDS011;29263;48.172;11.484;2023-08-01T05:40:07;7.03;;;3.10;;
43664;SDS011;29263;48.172;11.484;2023-08-01T05:42:33;4.55;;;2.88;;
43664;SDS011;29263;48.172;11.484;2023-08-01T05:44:59;6.32;;;3.53;;
43664;SDS011;29263;48.172;11.484;2023-08-01T05:47:25;6.57;;;3.20;;
43664;SDS011;29263;48.172;11.484;2023-08-01T05:49:50;4.53;;;2.80;;
43664;SDS011;29263;48.172;11.484;2023-08-01T05:52:16;5.43;;;3.15;;
43664;SDS011;29263;48.172;11.484;2023-08-01T05:54:41;4.97;;;2.92;;
43664;SDS011;29263;48.172;11.484;2023-08-01T05:57:07;8.05;;;2.88;;
43664;SDS011;29263;48.172;11.484;2023-08-01T05:59:33;7.40;;;2.90;;
43664;SDS011;29263;48.172;11.484;2023-08-01T06:01:59;4.70;;;3.40;;
43664;SDS011;29263;48.172;11.484;2023-08-01T06:04:25;5.20;;;3.00;;
43664;SDS011;29263;48.172;11.484;2023-08-01T06:06:50;5.22;;;2.58;;
43664;SDS011;29263;48.172;11.484;2023-08-01T06:09:16;4.63;;;2.70;;
43664;SDS011;29263;48.172;11.484;2023-08-01T06:11:41;7.20;;;3.03;;
43664;SDS011;29263;48.172;11.484;2023-08-01T06:14:08;5.45;;;2.63;;
43664;SDS011;29263;48.172;11.484;2023-08-01T06:16:34;6.47;;;2.78;;
43664;SDS011;29263;48.172;11.484;2023-08-01T06:19:00;3.70;;;2.83;;
43664;SDS011;29263;48.172;11.484;2023-08-01T06:21:26;3.40;;;2.50;;
43664;SDS011;29263;48.172;11.484;2023-08-01T06:23:52;5.50;;;2.92;;
43664;SDS011;29263;48.172;11.484;2023-08-01T06:26:17;6.28;;;2.95;;
43664;SDS011;29263;48.172;11.484;2023-08-01T06:28:43;5.35;;;2.67;;
43664;SDS011;29263;48.172;11.484;2023-08-01T06:31:09;3.08;;;2.25;;
43664;SDS011;29263;48.172;11.484;2023-08-01T06:33:34;5.30;;;2.58;;
43664;SDS011;29263;48.172;11.484;2023-08-01T06:36:00;4.03;;;2.35;;
43664;SDS011;29263;48.172;11.484;2023-08-01T06:38:25;5.57;;;2.50;;
43664;SDS011;29263;48.172;11.484;2023-08-01T06:40:51;6.57;;;2.80;;
43664;SDS011;29263;48.172;11.484;2023-08-01T06:43:17;5.20;;;3.10;;
43664;SDS011;29263;48.172;11.484;2023-08-01T06:45:42;4.13;;;2.65;;
43664;SDS011;29263;48.172;11.484;2023-08-01T06:48:08;5.18;;;2.75;;
43664;SDS011;29263;48.172;11.484;2023-08-01T06:50:34;5.78;;;2.80;;
43664;SDS011;29263;48.172;11.484;2023-08-01T06:52:59;3.65;;;2.33;;
43664;SDS011;29263;48.172;11.484;2023-08-01T06:55:26;4.38;;;2.30;;
43664;SDS011;29263;48.172;11.484;2023-08-01T06:57:52;4.47;;;2.83;;
43664;SDS011;29263;48.172;11.484;2023-08-01T07:00:18;4.40;;;2.50;;
43664;SDS011;29263;48.172;11.484;2023-08-01T07:02:43;3.70;;;2.55;;
43664;SDS011;29263;48.172;11.484;2023-08-01T07:05:09;2.95;;;2.15;;
43664;SDS011;29263;48.172;11.484;2023-08-01T07:07:35;3.78;;;2.55;;
43664;SDS011;29263;48.172;11.484;2023-08-01T07:10:00;4.43;;;2.30;;
43664;SDS011;29263;48.172;11.484;2023-08-01T07:12:26;4.20;;;2.33;;
43664;SDS011;29263;48.172;11.484;2023-08-01T07:14:52;2.85;;;2.00;;
43664;SDS011;29263;48.172;11.484;2023-08-01T07:17:17;6.65;;;2.30;;
43664;SDS011;29263;48.172;11.484;2023-08-01T07:19:43;3.22;;;2.22;;
43664;SDS011;29263;48.172;11.484;2023-08-01T07:22:09;6.25;;;2.20;;
43664;SDS011;29263;48.172;11.484;2023-08-01T07:24:34;3.88;;;2.10;;
43664;SDS011;29263;48.172;11.484;2023-08-01T07:27:00;3.05;;;2.10;;
43664;SDS011;29263;48.172;11.484;2023-08-01T07:29:25;5.65;;;2.40;;
43664;SDS011;29263;48.172;11.484;2023-08-01T07:31:51;3.63;;;2.25;;
43664;SDS011;29263;48.172;11.484;2023-08-01T07:34:17;2.72;;;1.77;;
43664;SDS011;29263;48.172;11.484;2023-08-01T07:36:42;3.45;;;1.98;;
43664;SDS011;29263;48.172;11.484;2023-08-01T07:39:10;2.83;;;2.08;;
43664;SDS011;29263;48.172;11.484;2023-08-01T07:41:36;3.47;;;2.08;;
43664;SDS011;29263;48.172;11.484;2023-08-01T07:44:02;4.15;;;2.03;;
43664;SDS011;29263;48.172;11.484;2023-08-01T07:46:31;3.77;;;2.20;;
43664;SDS011;29263;48.172;11.484;2023-08-01T07:48:57;3.65;;;1.83;;
43664;SDS011;29263;48.172;11.484;2023-08-01T07:51:24;3.13;;;1.95;;
43664;SDS011;29263;48.172;11.484;2023-08-01T07:53:50;5.93;;;1.98;;
43664;SDS011;29263;48.172;11.484;2023-08-01T07:56:17;4.95;;;2.22;;
43664;SDS011;29263;48.172;11.484;2023-08-01T07:58:43;3.40;;;1.80;;
43664;SDS011;29263;48.172;11.484;2023-08-01T08:01:08;4.43;;;2.08;;
43664;SDS011;29263;48.172;11.484;2023-08-01T08:03:34;3.55;;;2.15;;
43664;SDS011;29263;48.172;11.484;2023-08-01T08:06:00;3.25;;;1.90;;
43664;SDS011;29263;48.172;11.484;2023-08-01T08:08:25;4.00;;;2.28;;
43664;SDS011;29263;48.172;11.484;2023-08-01T08:10:52;4.60;;;2.00;;
43664;SDS011;29263;48.172;11.484;2023-08-01T08:13:17;2.80;;;1.65;;
43664;SDS011;29263;48.172;11.484;2023-08-01T08:15:43;4.68;;;1.75;;
43664;SDS011;29263;48.172;11.484;2023-08-01T08:18:08;3.38;;;1.67;;
43664;SDS011;29263;48.172;11.484;2023-08-01T08:20:40;6.65;;;2.00;;
43664;SDS011;29263;48.172;11.484;2023-08-01T08:23:07;2.72;;;1.80;;
43664;SDS011;29263;48.172;11.484;2023-08-01T08:25:33;3.60;;;2.08;;
43664;SDS011;29263;48.172;11.484;2023-08-01T08:27:59;3.65;;;1.95;;
43664;SDS011;29263;48.172;11.484;2023-08-01T08:30:24;2.55;;;1.63;;
43664;SDS011;29263;48.172;11.484;2023-08-01T08:32:50;3.15;;;1.70;;
43664;SDS011;29263;48.172;11.484;2023-08-01T08:35:16;4.88;;;1.83;;
43664;SDS011;29263;48.172;11.484;2023-08-01T08:37:41;3.47;;;2.25;;
43664;SDS011;29263;48.172;11.484;2023-08-01T08:40:07;3.58;;;1.90;;
43664;SDS011;29263;48.172;11.484;2023-08-01T08:42:33;6.05;;;2.00;;
43664;SDS011;29263;48.172;11.484;2023-08-01T08:45:02;3.70;;;2.15;;
43664;SDS011;29263;48.172;11.484;2023-08-01T08:47:30;2.55;;;2.08;;
43664;SDS011;29263;48.172;11.484;2023-08-01T08:50:00;2.88;;;2.00;;
43664;SDS011;29263;48.172;11.484;2023-08-01T08:52:26;3.03;;;1.92;;
43664;SDS011;29263;48.172;11.484;2023-08-01T08:54:52;3.78;;;2.13;;
43664;SDS011;29263;48.172;11.484;2023-08-01T08:57:18;3.70;;;1.85;;
43664;SDS011;29263;48.172;11.484;2023-08-01T08:59:45;4.85;;;2.03;;
43664;SDS011;29263;48.172;11.484;2023-08-01T09:02:12;2.90;;;1.90;;
43664;SDS011;29263;48.172;11.484;2023-08-01T09:04:39;2.83;;;1.80;;
43664;SDS011;29263;48.172;11.484;2023-08-01T09:07:09;3.10;;;2.00;;
43664;SDS011;29263;48.172;11.484;2023-08-01T09:09:36;2.67;;;1.60;;
43664;SDS011;29263;48.172;11.484;2023-08-01T09:12:02;4.60;;;2.03;;
43664;SDS011;29263;48.172;11.484;2023-08-01T09:14:28;5.53;;;1.92;;
43664;SDS011;29263;48.172;11.484;2023-08-01T09:16:54;4.97;;;2.15;;
43664;SDS011;29263;48.172;11.484;2023-08-01T09:19:24;5.03;;;1.90;;
43664;SDS011;29263;48.172;11.484;2023-08-01T09:21:52;2.30;;;1.70;;
43664;SDS011;29263;48.172;11.484;2023-08-01T09:24:19;3.83;;;2.00;;
43664;SDS011;29263;48.172;11.484;2023-08-01T09:26:46;4.22;;;1.77;;
43664;SDS011;29263;48.172;11.484;2023-08-01T09:29:15;4.22;;;2.13;;
43664;SDS011;29263;48.172;11.484;2023-08-01T09:31:41;3.35;;;2.10;;
43664;SDS011;29263;48.172;11.484;2023-08-01T09:34:18;5.93;;;2.33;;
43664;SDS011;29263;48.172;11.484;2023-08-01T09:36:45;3.95;;;2.28;;
43664;SDS011;29263;48.172;11.484;2023-08-01T09:39:15;3.22;;;2.05;;
43664;SDS011;29263;48.172;11.484;2023-08-01T09:41:44;4.07;;;1.92;;
43664;SDS011;29263;48.172;11.484;2023-08-01T09:44:11;4.43;;;1.98;;
43664;SDS011;29263;48.172;11.484;2023-08-01T09:46:37;4.53;;;1.80;;
43664;SDS011;29263;48.172;11.484;2023-08-01T09:49:09;3.65;;;1.80;;
43664;SDS011;29263;48.172;11.484;2023-08-01T09:51:46;4.80;;;2.13;;
43664;SDS011;29263;48.172;11.484;2023-08-01T09:54:13;3.10;;;1.98;;
43664;SDS011;29263;48.172;11.484;2023-08-01T09:56:40;4.30;;;1.92;;
43664;SDS011;29263;48.172;11.484;2023-08-01T09:59:09;2.45;;;1.67;;
43664;SDS011;29263;48.172;11.484;2023-08-01T10:01:35;4.45;;;1.95;;
43664;SDS011;29263;48.172;11.484;2023-08-01T10:04:03;4.57;;;1.98;;
43664;SDS011;29263;48.172;11.484;2023-08-01T10:06:31;2.83;;;1.98;;
43664;SDS011;29263;48.172;11.484;2023-08-01T10:08:59;3.15;;;1.85;;
43664;SDS011;29263;48.172;11.484;2023-08-01T10:11:25;3.60;;;1.95;;
43664;SDS011;29263;48.172;11.484;2023-08-01T10:13:54;3.22;;;2.13;;
43664;SDS011;29263;48.172;11.484;2023-08-01T10:16:20;4.05;;;2.15;;
43664;SDS011;29263;48.172;11.484;2023-08-01T10:18:47;4.90;;;1.95;;
43664;SDS011;29263;48.172;11.484;2023-08-01T10:21:16;3.53;;;1.70;;
43664;SDS011;29263;48.172;11.484;2023-08-01T10:23:43;3.50;;;1.65;;
43664;SDS011;29263;48.172;11.484;2023-08-01T10:26:11;2.45;;;1.70;;
43664;SDS011;29263;48.172;11.484;2023-08-01T10:28:38;4.00;;;2.30;;
43664;SDS011;29263;48.172;11.484;2023-08-01T10:31:13;4.43;;;1.88;;
43664;SDS011;29263;48.172;11.484;2023-08-01T10:33:40;2.78;;;2.00;;
43664;SDS011;29263;48.172;11.484;2023-08-01T10:41:25;4.78;;;2.03;;
43664;SDS011;29263;48.172;11.484;2023-08-01T10:46:48;2.25;;;1.70;;
43664;SDS011;29263;48.172;11.484;2023-08-01T10:49:17;3.85;;;2.08;;
43664;SDS011;29263;48.172;11.484;2023-08-01T10:51:43;2.60;;;1.70;;
43664;SDS011;29263;48.172;11.484;2023-08-01T10:54:22;5.10;;;2.58;;
43664;SDS011;29263;48.172;11.484;2023-08-01T10:56:53;4.05;;;1.98;;
43664;SDS011;29263;48.172;11.484;2023-08-01T10:59:21;3.50;;;2.35;;
43664;SDS011;29263;48.172;11.484;2023-08-01T11:01:50;3.35;;;2.20;;
43664;SDS011;29263;48.172;11.484;2023-08-01T11:04:23;2.83;;;1.80;;
43664;SDS011;29263;48.172;11.484;2023-08-01T11:06:49;3.72;;;2.17;;
43664;SDS011;29263;48.172;11.484;2023-08-01T11:09:20;2.72;;;1.90;;
43664;SDS011;29263;48.172;11.484;2023-08-01T11:11:51;2.72;;;1.85;;
43664;SDS011;29263;48.172;11.484;2023-08-01T11:14:27;3.50;;;1.77;;
43664;SDS011;29263;48.172;11.484;2023-08-01T11:16:55;3.85;;;1.73;;
43664;SDS011;29263;48.172;11.484;2023-08-01T11:19:25;2.90;;;1.80;;
43664;SDS011;29263;48.172;11.484;2023-08-01T11:21:53;2.03;;;1.45;;
43664;SDS011;29263;48.172;11.484;2023-08-01T11:24:21;2.30;;;1.20;;
43664;SDS011;29263;48.172;11.484;2023-08-01T11:26:48;3.08;;;1.17;;
43664;SDS011;29263;48.172;11.484;2023-08-01T11:29:15;4.15;;;1.20;;
43664;SDS011;29263;48.172;11.484;2023-08-01T11:31:51;1.90;;;1.02;;
43664;SDS011;29263;48.172;11.484;2023-08-01T11:34:25;3.30;;;1.10;;
43664;SDS011;29263;48.172;11.484;2023-08-01T11:36:50;3.45;;;1.23;;
43664;SDS011;29263;48.172;11.484;2023-08-01T11:39:17;1.92;;;1.17;;
43664;SDS011;29263;48.172;11.484;2023-08-01T11:41:43;4.35;;;1.48;;
43664;SDS011;29263;48.172;11.484;2023-08-01T11:44:10;2.45;;;1.42;;
43664;SDS011;29263;48.172;11.484;2023-08-01T11:46:36;3.75;;;1.30;;
43664;SDS011;29263;48.172;11.484;2023-08-01T11:49:03;2.53;;;1.42;;
43664;SDS011;29263;48.172;11.484;2023-08-01T11:51:31;2.95;;;1.48;;
43664;SDS011;29263;48.172;11.484;2023-08-01T11:54:05;3.00;;;1.50;;
43664;SDS011;29263;48.172;11.484;2023-08-01T11:56:32;2.10;;;1.33;;
43664;SDS011;29263;48.172;11.484;2023-08-01T11:58:58;2.45;;;1.50;;
43664;SDS011;29263;48.172;11.484;2023-08-01T12:01:24;3.45;;;1.38;;
43664;SDS011;29263;48.172;11.484;2023-08-01T12:03:51;1.90;;;1.40;;
43664;SDS011;29263;48.172;11.484;2023-08-01T12:06:18;3.70;;;1.70;;
43664;SDS011;29263;48.172;11.484;2023-08-01T12:08:47;7.88;;;4.80;;
43664;SDS011;29263;48.172;11.484;2023-08-01T12:11:17;7.00;;;4.40;;
43664;SDS011;29263;48.172;11.484;2023-08-01T12:13:47;3.88;;;1.98;;
43664;SDS011;29263;48.172;11.484;2023-08-01T12:16:13;2.22;;;1.40;;
43664;SDS011;29263;48.172;11.484;2023-08-01T12:18:45;2.60;;;1.58;;
43664;SDS011;29263;48.172;11.484;2023-08-01T12:21:12;3.42;;;1.70;;
43664;SDS011;29263;48.172;11.484;2023-08-01T12:23:38;2.40;;;1.70;;
43664;SDS011;29263;48.172;11.484;2023-08-01T12:26:04;3.03;;;1.60;;
43664;SDS011;29263;48.172;11.484;2023-08-01T12:28:30;2.13;;;1.50;;
43664;SDS011;29263;48.172;11.484;2023-08-01T12:30:55;3.10;;;1.48;;
43664;SDS011;29263;48.172;11.484;2023-08-01T12:33:23;2.47;;;1.65;;
43664;SDS011;29263;48.172;11.484;2023-08-01T12:35:49;2.60;;;1.38;;
43664;SDS011;29263;48.172;11.484;2023-08-01T12:38:15;2.67;;;1.50;;
43664;SDS011;29263;48.172;11.484;2023-08-01T12:40:41;3.47;;;1.40;;
43664;SDS011;29263;48.172;11.484;2023-08-01T12:43:06;3.15;;;1.33;;
43664;SDS011;29263;48.172;11.484;2023-08-01T12:45:32;2.22;;;1.38;;
43664;SDS011;29263;48.172;11.484;2023-08-01T12:47:58;2.25;;;1.38;;
43664;SDS011;29263;48.172;11.484;2023-08-01T12:50:23;2.53;;;1.15;;
43664;SDS011;29263;48.172;11.484;2023-08-01T12:52:49;1.58;;;1.25;;
43664;SDS011;29263;48.172;11.484;2023-08-01T12:55:14;1.85;;;1.35;;
43664;SDS011;29263;48.172;11.484;2023-08-01T12:57:40;2.65;;;1.35;;
43664;SDS011;29263;48.172;11.484;2023-08-01T13:00:06;2.35;;;0.95;;
43664;SDS011;29263;48.172;11.484;2023-08-01T13:02:35;2.55;;;1.50;;
43664;SDS011;29263;48.172;11.484;2023-08-01T13:05:02;2.40;;;1.50;;
43664;SDS011;29263;48.172;11.484;2023-08-01T13:07:27;1.52;;;1.13;;
43664;SDS011;29263;48.172;11.484;2023-08-01T13:09:53;1.75;;;1.00;;
43664;SDS011;29263;48.172;11.484;2023-08-01T13:12:18;2.70;;;1.55;;
43664;SDS011;29263;48.172;11.484;2023-08-01T13:14:44;1.95;;;1.00;;
43664;SDS011;29263;48.172;11.484;2023-08-01T13:17:10;2.67;;;1.08;;
43664;SDS011;29263;48.172;11.484;2023-08-01T13:19:35;1.63;;;1.15;;
43664;SDS011;29263;48.172;11.484;2023-08-01T13:22:01;1.80;;;1.17;;
43664;SDS011;29263;48.172;11.484;2023-08-01T13:24:26;2.85;;;1.77;;
43664;SDS011;29263;48.172;11.484;2023-08-01T13:26:52;1.65;;;1.20;;
43664;SDS011;29263;48.172;11.484;2023-08-01T13:29:17;1.85;;;1.27;;
43664;SDS011;29263;48.172;11.484;2023-08-01T13:31:43;3.63;;;0.98;;
43664;SDS011;29263;48.172;11.484;2023-08-01T13:34:09;1.95;;;1.15;;
43664;SDS011;29263;48.172;11.484;2023-08-01T13:36:34;2.97;;;1.45;;
43664;SDS011;29263;48.172;11.484;2023-08-01T13:39:00;1.73;;;1.00;;
43664;SDS011;29263;48.172;11.484;2023-08-01T13:41:26;3.78;;;1.83;;
43664;SDS011;29263;48.172;11.484;2023-08-01T13:43:51;2.65;;;1.23;;
43664;SDS011;29263;48.172;11.484;2023-08-01T13:46:17;2.28;;;1.50;;
43664;SDS011;29263;48.172;11.484;2023-08-01T13:48:44;2.40;;;1.30;;
43664;SDS011;29263;48.172;11.484;2023-08-01T13:51:11;1.70;;;1.30;;
43664;SDS011;29263;48.172;11.484;2023-08-01T13:53:37;2.10;;;1.27;;
43664;SDS011;29263;48.172;11.484;2023-08-01T13:56:09;2.27;;;1.50;;
43664;SDS011;29263;48.172;11.484;2023-08-01T13:58:35;2.88;;;1.10;;
43664;SDS011;29263;48.172;11.484;2023-08-01T14:01:02;2.90;;;1.30;;
43664;SDS011;29263;48.172;11.484;2023-08-01T14:03:30;1.65;;;1.02;;
43664;SDS011;29263;48.172;11.484;2023-08-01T14:05:56;3.33;;;1.60;;
43664;SDS011;29263;48.172;11.484;2023-08-01T14:08:28;3.90;;;1.50;;
43664;SDS011;29263;48.172;11.484;2023-08-01T14:10:53;2.50;;;1.65;;
43664;SDS011;29263;48.172;11.484;2023-08-01T14:13:19;4.05;;;1.60;;
43664;SDS011;29263;48.172;11.484;2023-08-01T14:15:44;1.70;;;1.30;;
43664;SDS011;29263;48.172;11.484;2023-08-01T14:18:10;3.58;;;1.67;;
43664;SDS011;29263;48.172;11.484;2023-08-01T14:20:36;3.95;;;1.33;;
43664;SDS011;29263;48.172;11.484;2023-08-01T14:23:01;4.53;;;1.52;;
43664;SDS011;29263;48.172;11.484;2023-08-01T14:25:27;2.55;;;1.52;;
43664;SDS011;29263;48.172;11.484;2023-08-01T14:27:52;1.83;;;1.00;;
43664;SDS011;29263;48.172;11.484;2023-08-01T14:30:18;0.50;;;0.50;;
43664;SDS011;29263;48.172;11.484;2023-08-01T14:32:43;1.70;;;1.02;;
43664;SDS011;29263;48.172;11.484;2023-08-01T14:35:09;3.83;;;0.73;;
43664;SDS011;29263;48.172;11.484;2023-08-01T14:37:35;0.57;;;0.43;;